sensor_id;sensor_type;location;lat;lon;timestamp;noise_LAeq;noise_LA_min;noise_LA_max;noise_LA01;noise_LA95
60872;Laerm;46714;50.118;14.462;2022-10-31T00:01:36;67.39;55.21;78.43;;
60872;Laerm;46714;50.118;14.462;2022-10-31T00:04:02;64.43;42.59;77.32;;
60872;Laerm;46714;50.118;14.462;2022-10-31T00:06:28;67.19;50.60;80.71;;
60872;Laerm;46714;50.118;14.462;2022-10-31T00:08:56;65.62;47.28;77.46;;
60872;Laerm;46714;50.118;14.462;2022-10-31T00:11:22;67.13;44.43;81.08;;
60872;Laerm;46714;50.118;14.462;2022-10-31T00:13:48;61.78;39.58;74.77;;
60872;Laerm;46714;50.118;14.462;2022-10-31T00:16:20;66.50;49.82;78.73;;
60872;Laerm;46714;50.118;14.462;2022-10-31T00:18:51;62.20;40.43;73.78;;
60872;Laerm;46714;50.118;14.462;2022-10-31T00:21:16;64.66;47.98;75.45;;
60872;Laerm;46714;50.118;14.462;2022-10-31T00:23:42;64.62;43.86;74.75;;
60872;Laerm;46714;50.118;14.462;2022-10-31T00:26:07;66.37;44.03;78.21;;
60872;Laerm;46714;50.118;14.462;2022-10-31T00:28:33;64.90;49.39;75.66;;
60872;Laerm;46714;50.118;14.462;2022-10-31T00:31:05;63.32;42.42;72.79;;
60872;Laerm;46714;50.118;14.462;2022-10-31T00:33:33;61.48;40.98;72.81;;
60872;Laerm;46714;50.118;14.462;2022-10-31T00:36:00;66.95;46.13;80.50;;
60872;Laerm;46714;50.118;14.462;2022-10-31T00:38:25;64.27;46.82;72.31;;
60872;Laerm;46714;50.118;14.462;2022-10-31T00:40:51;62.19;39.70;72.14;;
60872;Laerm;46714;50.118;14.462;2022-10-31T00:43:16;67.64;56.42;76.19;;
60872;Laerm;46714;50.118;14.462;2022-10-31T00:45:42;64.73;40.98;76.47;;
60872;Laerm;46714;50.118;14.462;2022-10-31T00:48:09;62.45;43.58;72.99;;
60872;Laerm;46714;50.118;14.462;2022-10-31T00:50:37;60.30;40.13;71.55;;
60872;Laerm;46714;50.118;14.462;2022-10-31T00:53:02;64.37;41.14;75.25;;
60872;Laerm;46714;50.118;14.462;2022-10-31T00:55:28;64.32;43.94;75.65;;
60872;Laerm;46714;50.118;14.462;2022-10-31T00:57:54;66.17;43.90;80.06;;
60872;Laerm;46714;50.118;14.462;2022-10-31T01:00:19;61.79;42.03;73.54;;
60872;Laerm;46714;50.118;14.462;2022-10-31T01:02:45;63.27;39.46;74.63;;
60872;Laerm;46714;50.118;14.462;2022-10-31T01:05:11;64.85;46.67;74.78;;
60872;Laerm;46714;50.118;14.462;2022-10-31T01:07:38;64.48;46.02;79.17;;
60872;Laerm;46714;50.118;14.462;2022-10-31T01:10:05;63.73;47.72;73.86;;
60872;Laerm;46714;50.118;14.462;2022-10-31T01:12:42;62.84;40.98;72.70;;
60872;Laerm;46714;50.118;14.462;2022-10-31T01:15:10;65.60;43.54;75.19;;
60872;Laerm;46714;50.118;14.462;2022-10-31T01:17:36;66.44;45.60;75.56;;
60872;Laerm;46714;50.118;14.462;2022-10-31T01:20:02;65.88;41.53;77.32;;
60872;Laerm;46714;50.118;14.462;2022-10-31T01:22:28;60.76;45.07;71.65;;
60872;Laerm;46714;50.118;14.462;2022-10-31T01:24:53;66.43;42.76;79.18;;
60872;Laerm;46714;50.118;14.462;2022-10-31T01:27:19;63.90;46.69;72.89;;
60872;Laerm;46714;50.118;14.462;2022-10-31T01:29:44;64.76;40.43;75.66;;
60872;Laerm;46714;50.118;14.462;2022-10-31T01:32:10;66.75;43.19;75.98;;
60872;Laerm;46714;50.118;14.462;2022-10-31T01:34:35;63.36;43.19;74.62;;
60872;Laerm;46714;50.118;14.462;2022-10-31T01:37:00;64.21;42.82;74.48;;
60872;Laerm;46714;50.118;14.462;2022-10-31T01:39:26;63.80;43.14;73.44;;
60872;Laerm;46714;50.118;14.462;2022-10-31T01:41:53;65.26;46.23;76.22;;
60872;Laerm;46714;50.118;14.462;2022-10-31T01:52:03;59.22;38.52;75.74;;
60872;Laerm;46714;50.118;14.462;2022-10-31T01:54:33;65.55;50.08;76.22;;
60872;Laerm;46714;50.118;14.462;2022-10-31T01:57:02;61.85;43.72;72.81;;
60872;Laerm;46714;50.118;14.462;2022-10-31T01:59:30;67.64;49.90;81.92;;
60872;Laerm;46714;50.118;14.462;2022-10-31T02:01:57;64.20;45.45;76.74;;
60872;Laerm;46714;50.118;14.462;2022-10-31T02:04:24;64.34;45.23;73.88;;
60872;Laerm;46714;50.118;14.462;2022-10-31T02:07:02;62.96;43.54;74.28;;
60872;Laerm;46714;50.118;14.462;2022-10-31T02:09:30;64.05;43.29;76.24;;
60872;Laerm;46714;50.118;14.462;2022-10-31T02:11:58;66.87;46.50;81.99;;
60872;Laerm;46714;50.118;14.462;2022-10-31T02:14:26;66.69;43.58;78.95;;
60872;Laerm;46714;50.118;14.462;2022-10-31T02:16:54;62.83;40.53;75.13;;
60872;Laerm;46714;50.118;14.462;2022-10-31T02:31:07;67.35;52.73;81.75;;
60872;Laerm;46714;50.118;14.462;2022-10-31T02:33:50;66.16;44.27;77.87;;
60872;Laerm;46714;50.118;14.462;2022-10-31T02:36:26;66.33;48.98;76.74;;
60872;Laerm;46714;50.118;14.462;2022-10-31T02:39:10;64.49;47.72;73.01;;
60872;Laerm;46714;50.118;14.462;2022-10-31T02:44:35;65.08;45.77;74.07;;
60872;Laerm;46714;50.118;14.462;2022-10-31T02:47:06;64.01;44.43;75.61;;
60872;Laerm;46714;50.118;14.462;2022-10-31T02:52:24;65.23;48.78;76.05;;
60872;Laerm;46714;50.118;14.462;2022-10-31T02:54:50;68.30;45.83;81.56;;
60872;Laerm;46714;50.118;14.462;2022-10-31T02:57:25;66.25;40.62;81.77;;
60872;Laerm;46714;50.118;14.462;2022-10-31T02:59:56;67.98;50.44;77.61;;
60872;Laerm;46714;50.118;14.462;2022-10-31T03:11:01;66.04;47.59;76.23;;
60872;Laerm;46714;50.118;14.462;2022-10-31T03:13:45;66.41;47.00;77.74;;
60872;Laerm;46714;50.118;14.462;2022-10-31T03:19:05;68.25;54.61;81.32;;
60872;Laerm;46714;50.118;14.462;2022-10-31T03:24:02;66.94;50.21;78.24;;
60872;Laerm;46714;50.118;14.462;2022-10-31T03:26:29;65.66;42.47;79.65;;
60872;Laerm;46714;50.118;14.462;2022-10-31T03:29:00;68.89;56.92;76.89;;
60872;Laerm;46714;50.118;14.462;2022-10-31T03:31:32;67.41;56.38;74.54;;
60872;Laerm;46714;50.118;14.462;2022-10-31T03:34:01;68.22;55.78;77.30;;
60872;Laerm;46714;50.118;14.462;2022-10-31T03:36:30;66.78;52.23;77.46;;
60872;Laerm;46714;50.118;14.462;2022-10-31T03:38:59;67.33;56.70;74.71;;
60872;Laerm;46714;50.118;14.462;2022-10-31T03:41:31;68.68;60.71;76.48;;
60872;Laerm;46714;50.118;14.462;2022-10-31T03:44:04;68.71;53.04;76.38;;
60872;Laerm;46714;50.118;14.462;2022-10-31T03:46:32;70.46;54.05;81.64;;
60872;Laerm;46714;50.118;14.462;2022-10-31T03:48:57;67.83;57.84;75.20;;
60872;Laerm;46714;50.118;14.462;2022-10-31T03:51:47;69.02;51.20;77.31;;
60872;Laerm;46714;50.118;14.462;2022-10-31T03:54:54;69.84;53.88;79.62;;
60872;Laerm;46714;50.118;14.462;2022-10-31T03:57:19;67.39;57.75;77.26;;
60872;Laerm;46714;50.118;14.462;2022-10-31T03:59:51;69.00;56.78;78.12;;
60872;Laerm;46714;50.118;14.462;2022-10-31T04:02:22;67.57;53.89;78.88;;
60872;Laerm;46714;50.118;14.462;2022-10-31T04:04:51;69.63;53.88;79.16;;
60872;Laerm;46714;50.118;14.462;2022-10-31T04:07:20;69.35;58.50;80.39;;
60872;Laerm;46714;50.118;14.462;2022-10-31T04:09:50;69.61;58.47;80.66;;
60872;Laerm;46714;50.118;14.462;2022-10-31T04:12:17;69.85;59.13;82.43;;
60872;Laerm;46714;50.118;14.462;2022-10-31T04:14:46;69.86;60.38;78.09;;
60872;Laerm;46714;50.118;14.462;2022-10-31T04:17:15;70.03;63.11;75.73;;
60872;Laerm;46714;50.118;14.462;2022-10-31T04:19:42;71.55;64.11;79.18;;
60872;Laerm;46714;50.118;14.462;2022-10-31T04:22:07;70.84;63.65;77.03;;
60872;Laerm;46714;50.118;14.462;2022-10-31T04:24:33;71.49;63.61;80.78;;
60872;Laerm;46714;50.118;14.462;2022-10-31T04:26:58;70.86;62.91;76.35;;
60872;Laerm;46714;50.118;14.462;2022-10-31T04:29:24;72.65;66.09;80.37;;
60872;Laerm;46714;50.118;14.462;2022-10-31T04:31:49;70.59;62.79;78.63;;
60872;Laerm;46714;50.118;14.462;2022-10-31T04:34:15;72.94;64.08;81.36;;
60872;Laerm;46714;50.118;14.462;2022-10-31T04:36:40;71.92;66.11;80.24;;
60872;Laerm;46714;50.118;14.462;2022-10-31T04:39:06;71.69;64.34;77.49;;
60872;Laerm;46714;50.118;14.462;2022-10-31T04:41:31;72.20;63.22;77.56;;
60872;Laerm;46714;50.118;14.462;2022-10-31T04:43:57;71.89;64.91;78.16;;
60872;Laerm;46714;50.118;14.462;2022-10-31T04:46:22;72.71;64.99;84.16;;
60872;Laerm;46714;50.118;14.462;2022-10-31T04:48:48;72.23;65.19;81.14;;
60872;Laerm;46714;50.118;14.462;2022-10-31T04:51:13;72.97;67.18;80.19;;
60872;Laerm;46714;50.118;14.462;2022-10-31T04:53:39;72.50;67.37;79.41;;
60872;Laerm;46714;50.118;14.462;2022-10-31T04:56:05;72.96;67.48;77.58;;
60872;Laerm;46714;50.118;14.462;2022-10-31T04:58:30;74.77;69.16;81.06;;
60872;Laerm;46714;50.118;14.462;2022-10-31T05:01:00;73.58;68.46;78.60;;
60872;Laerm;46714;50.118;14.462;2022-10-31T05:03:25;73.31;66.98;78.86;;
60872;Laerm;46714;50.118;14.462;2022-10-31T05:05:51;73.41;67.91;77.35;;
60872;Laerm;46714;50.118;14.462;2022-10-31T05:08:16;72.77;66.57;78.71;;
60872;Laerm;46714;50.118;14.462;2022-10-31T05:10:42;73.14;67.29;77.81;;
60872;Laerm;46714;50.118;14.462;2022-10-31T05:13:08;73.69;67.62;79.44;;
60872;Laerm;46714;50.118;14.462;2022-10-31T05:15:33;72.91;66.20;80.32;;
60872;Laerm;46714;50.118;14.462;2022-10-31T05:17:59;73.74;67.54;78.76;;
60872;Laerm;46714;50.118;14.462;2022-10-31T05:20:27;73.30;66.31;77.29;;
60872;Laerm;46714;50.118;14.462;2022-10-31T05:22:54;73.62;65.42;79.72;;
60872;Laerm;46714;50.118;14.462;2022-10-31T05:25:22;73.97;67.13;79.44;;
60872;Laerm;46714;50.118;14.462;2022-10-31T05:27:49;73.43;66.14;79.43;;
60872;Laerm;46714;50.118;14.462;2022-10-31T05:30:21;73.90;66.19;81.52;;
60872;Laerm;46714;50.118;14.462;2022-10-31T05:32:48;73.04;65.53;79.08;;
60872;Laerm;46714;50.118;14.462;2022-10-31T05:35:20;73.90;67.74;79.68;;
60872;Laerm;46714;50.118;14.462;2022-10-31T05:37:45;78.78;66.40;95.77;;
60872;Laerm;46714;50.118;14.462;2022-10-31T05:40:13;73.57;66.73;77.83;;
60872;Laerm;46714;50.118;14.462;2022-10-31T05:42:39;74.19;67.89;80.15;;
60872;Laerm;46714;50.118;14.462;2022-10-31T05:45:26;73.11;65.20;79.10;;
60872;Laerm;46714;50.118;14.462;2022-10-31T05:47:56;77.48;65.30;95.78;;
60872;Laerm;46714;50.118;14.462;2022-10-31T05:50:23;74.16;69.78;79.16;;
60872;Laerm;46714;50.118;14.462;2022-10-31T05:53:01;73.47;68.27;78.03;;
60872;Laerm;46714;50.118;14.462;2022-10-31T05:55:27;74.82;70.93;80.71;;
60872;Laerm;46714;50.118;14.462;2022-10-31T05:57:54;78.93;66.56;100.77;;
60872;Laerm;46714;50.118;14.462;2022-10-31T06:00:20;73.93;66.27;81.65;;
60872;Laerm;46714;50.118;14.462;2022-10-31T06:02:46;73.45;67.53;80.63;;
60872;Laerm;46714;50.118;14.462;2022-10-31T06:05:12;73.55;67.07;77.57;;
60872;Laerm;46714;50.118;14.462;2022-10-31T06:07:37;74.22;66.88;83.62;;
60872;Laerm;46714;50.118;14.462;2022-10-31T06:10:05;74.16;67.17;90.01;;
60872;Laerm;46714;50.118;14.462;2022-10-31T06:12:31;75.99;67.60;94.91;;
60872;Laerm;46714;50.118;14.462;2022-10-31T06:14:56;74.21;67.26;80.18;;
60872;Laerm;46714;50.118;14.462;2022-10-31T06:17:22;74.19;65.89;79.77;;
60872;Laerm;46714;50.118;14.462;2022-10-31T06:19:47;74.60;68.49;81.63;;
60872;Laerm;46714;50.118;14.462;2022-10-31T06:22:13;73.90;68.79;77.73;;
60872;Laerm;46714;50.118;14.462;2022-10-31T06:24:38;74.31;68.05;80.62;;
60872;Laerm;46714;50.118;14.462;2022-10-31T06:27:04;74.02;67.95;79.83;;
60872;Laerm;46714;50.118;14.462;2022-10-31T06:29:30;73.34;66.49;78.29;;
60872;Laerm;46714;50.118;14.462;2022-10-31T06:31:55;73.90;67.87;81.88;;
60872;Laerm;46714;50.118;14.462;2022-10-31T06:34:21;74.11;69.46;79.54;;
60872;Laerm;46714;50.118;14.462;2022-10-31T06:36:47;74.28;69.24;81.28;;
60872;Laerm;46714;50.118;14.462;2022-10-31T06:39:12;73.98;66.17;80.77;;
60872;Laerm;46714;50.118;14.462;2022-10-31T06:41:38;74.01;63.57;81.72;;
60872;Laerm;46714;50.118;14.462;2022-10-31T06:44:05;74.25;69.58;77.81;;
60872;Laerm;46714;50.118;14.462;2022-10-31T06:46:31;73.53;67.16;80.99;;
60872;Laerm;46714;50.118;14.462;2022-10-31T06:48:57;73.66;68.47;81.28;;
60872;Laerm;46714;50.118;14.462;2022-10-31T06:51:23;73.36;66.98;79.86;;
60872;Laerm;46714;50.118;14.462;2022-10-31T06:53:49;74.69;65.73;82.16;;
60872;Laerm;46714;50.118;14.462;2022-10-31T06:56:14;77.86;70.01;94.78;;
60872;Laerm;46714;50.118;14.462;2022-10-31T06:58:40;73.80;67.30;82.42;;
60872;Laerm;46714;50.118;14.462;2022-10-31T07:01:05;75.84;69.95;92.26;;
60872;Laerm;46714;50.118;14.462;2022-10-31T07:03:32;73.90;66.06;84.73;;
60872;Laerm;46714;50.118;14.462;2022-10-31T07:05:58;74.30;65.45;87.33;;
60872;Laerm;46714;50.118;14.462;2022-10-31T07:08:24;73.29;63.91;78.21;;
60872;Laerm;46714;50.118;14.462;2022-10-31T07:13:20;79.50;68.38;100.37;;
60872;Laerm;46714;50.118;14.462;2022-10-31T07:15:59;74.23;67.51;81.60;;
60872;Laerm;46714;50.118;14.462;2022-10-31T07:18:24;73.04;68.27;78.32;;
60872;Laerm;46714;50.118;14.462;2022-10-31T07:20:51;73.16;64.37;79.63;;
60872;Laerm;46714;50.118;14.462;2022-10-31T07:23:16;73.34;65.77;78.53;;
60872;Laerm;46714;50.118;14.462;2022-10-31T07:25:42;73.12;65.93;80.66;;
60872;Laerm;46714;50.118;14.462;2022-10-31T07:28:08;73.65;68.82;79.30;;
60872;Laerm;46714;50.118;14.462;2022-10-31T07:30:33;80.87;66.06;97.49;;
60872;Laerm;46714;50.118;14.462;2022-10-31T07:32:59;73.60;66.13;79.92;;
60872;Laerm;46714;50.118;14.462;2022-10-31T07:35:27;74.12;68.99;79.08;;
60872;Laerm;46714;50.118;14.462;2022-10-31T07:37:53;73.04;65.87;78.31;;
60872;Laerm;46714;50.118;14.462;2022-10-31T07:40:20;72.95;66.94;77.74;;
60872;Laerm;46714;50.118;14.462;2022-10-31T07:42:48;72.98;62.49;81.80;;
60872;Laerm;46714;50.118;14.462;2022-10-31T07:45:18;77.65;63.90;95.28;;
60872;Laerm;46714;50.118;14.462;2022-10-31T07:47:51;76.76;65.90;101.32;;
60872;Laerm;46714;50.118;14.462;2022-10-31T07:50:23;73.68;66.76;83.45;;
60872;Laerm;46714;50.118;14.462;2022-10-31T07:53:02;73.45;64.31;79.60;;
60872;Laerm;46714;50.118;14.462;2022-10-31T07:55:28;78.97;67.03;94.70;;
60872;Laerm;46714;50.118;14.462;2022-10-31T07:57:59;81.71;67.83;98.43;;
60872;Laerm;46714;50.118;14.462;2022-10-31T08:00:26;75.71;61.81;89.69;;
60872;Laerm;46714;50.118;14.462;2022-10-31T08:02:59;73.86;60.86;82.96;;
60872;Laerm;46714;50.118;14.462;2022-10-31T08:05:25;76.38;65.15;90.71;;
60872;Laerm;46714;50.118;14.462;2022-10-31T08:07:53;73.55;68.82;78.13;;
60872;Laerm;46714;50.118;14.462;2022-10-31T08:10:19;73.47;67.72;80.03;;
60872;Laerm;46714;50.118;14.462;2022-10-31T08:12:45;73.80;65.17;80.10;;
60872;Laerm;46714;50.118;14.462;2022-10-31T08:15:11;78.79;66.62;99.09;;
60872;Laerm;46714;50.118;14.462;2022-10-31T08:17:37;73.11;63.28;81.19;;
60872;Laerm;46714;50.118;14.462;2022-10-31T08:20:04;73.89;66.50;80.34;;
60872;Laerm;46714;50.118;14.462;2022-10-31T08:22:30;73.94;66.84;81.38;;
60872;Laerm;46714;50.118;14.462;2022-10-31T08:24:56;74.61;67.19;87.98;;
60872;Laerm;46714;50.118;14.462;2022-10-31T08:27:21;73.26;67.76;78.62;;
60872;Laerm;46714;50.118;14.462;2022-10-31T08:29:47;73.58;66.39;79.55;;
60872;Laerm;46714;50.118;14.462;2022-10-31T08:32:13;74.21;66.87;81.69;;
60872;Laerm;46714;50.118;14.462;2022-10-31T08:34:38;77.99;69.35;95.74;;
60872;Laerm;46714;50.118;14.462;2022-10-31T08:37:03;73.97;66.38;79.84;;
60872;Laerm;46714;50.118;14.462;2022-10-31T08:39:29;79.90;67.05;102.95;;
60872;Laerm;46714;50.118;14.462;2022-10-31T08:41:54;77.05;65.86;95.00;;
60872;Laerm;46714;50.118;14.462;2022-10-31T08:44:19;73.31;65.54;79.48;;
60872;Laerm;46714;50.118;14.462;2022-10-31T08:46:48;73.30;68.77;78.42;;
60872;Laerm;46714;50.118;14.462;2022-10-31T08:49:13;73.36;66.59;79.17;;
60872;Laerm;46714;50.118;14.462;2022-10-31T08:51:39;73.88;67.97;81.01;;
60872;Laerm;46714;50.118;14.462;2022-10-31T08:54:04;78.29;69.34;95.96;;
60872;Laerm;46714;50.118;14.462;2022-10-31T08:56:30;80.90;69.08;103.39;;
60872;Laerm;46714;50.118;14.462;2022-10-31T08:58:55;73.14;67.65;77.51;;
60872;Laerm;46714;50.118;14.462;2022-10-31T09:01:22;72.38;64.32;77.83;;
60872;Laerm;46714;50.118;14.462;2022-10-31T09:03:47;73.53;67.76;79.89;;
60872;Laerm;46714;50.118;14.462;2022-10-31T09:06:13;79.10;68.74;99.30;;
60872;Laerm;46714;50.118;14.462;2022-10-31T09:08:38;73.77;68.19;78.59;;
60872;Laerm;46714;50.118;14.462;2022-10-31T09:11:04;75.01;69.22;86.03;;
60872;Laerm;46714;50.118;14.462;2022-10-31T09:13:41;74.12;67.30;80.83;;
60872;Laerm;46714;50.118;14.462;2022-10-31T09:16:15;74.05;66.78;80.34;;
60872;Laerm;46714;50.118;14.462;2022-10-31T09:18:40;75.46;66.96;89.90;;
60872;Laerm;46714;50.118;14.462;2022-10-31T09:21:07;74.38;67.09;82.64;;
60872;Laerm;46714;50.118;14.462;2022-10-31T09:23:32;81.92;68.71;105.44;;
60872;Laerm;46714;50.118;14.462;2022-10-31T09:26:00;73.97;66.67;83.14;;
60872;Laerm;46714;50.118;14.462;2022-10-31T09:28:25;73.40;67.02;78.94;;
60872;Laerm;46714;50.118;14.462;2022-10-31T09:30:52;80.99;68.26;100.03;;
60872;Laerm;46714;50.118;14.462;2022-10-31T09:33:18;74.11;67.74;82.56;;
60872;Laerm;46714;50.118;14.462;2022-10-31T09:35:44;74.91;68.67;82.70;;
60872;Laerm;46714;50.118;14.462;2022-10-31T09:38:12;74.64;70.01;79.61;;
60872;Laerm;46714;50.118;14.462;2022-10-31T09:40:48;74.47;68.24;79.16;;
60872;Laerm;46714;50.118;14.462;2022-10-31T09:49:21;74.85;67.18;80.51;;
60872;Laerm;46714;50.118;14.462;2022-10-31T09:52:01;74.71;69.90;78.83;;
60872;Laerm;46714;50.118;14.462;2022-10-31T09:54:42;75.27;71.01;80.68;;
60872;Laerm;46714;50.118;14.462;2022-10-31T09:57:25;76.04;69.46;95.14;;
60872;Laerm;46714;50.118;14.462;2022-10-31T09:59:51;74.86;70.70;81.88;;
60872;Laerm;46714;50.118;14.462;2022-10-31T10:15:51;75.72;69.16;87.29;;
60872;Laerm;46714;50.118;14.462;2022-10-31T10:18:38;75.25;70.96;80.81;;
60872;Laerm;46714;50.118;14.462;2022-10-31T10:27:26;75.10;69.22;85.08;;
60872;Laerm;46714;50.118;14.462;2022-10-31T10:30:18;81.37;71.10;105.25;;
60872;Laerm;46714;50.118;14.462;2022-10-31T10:32:48;74.96;68.03;81.12;;
60872;Laerm;46714;50.118;14.462;2022-10-31T10:35:32;74.70;68.69;78.26;;
60872;Laerm;46714;50.118;14.462;2022-10-31T10:38:23;79.49;71.12;96.03;;
60872;Laerm;46714;50.118;14.462;2022-10-31T10:40:52;78.27;69.50;96.38;;
60872;Laerm;46714;50.118;14.462;2022-10-31T10:43:26;74.47;69.47;82.21;;
60872;Laerm;46714;50.118;14.462;2022-10-31T10:51:59;74.49;70.19;78.83;;
60872;Laerm;46714;50.118;14.462;2022-10-31T10:54:42;74.80;70.66;91.80;;
60872;Laerm;46714;50.118;14.462;2022-10-31T10:57:30;75.37;70.46;85.45;;
60872;Laerm;46714;50.118;14.462;2022-10-31T11:00:00;74.67;68.54;80.86;;
60872;Laerm;46714;50.118;14.462;2022-10-31T11:02:29;76.54;69.58;94.51;;
60872;Laerm;46714;50.118;14.462;2022-10-31T11:04:58;74.58;69.69;81.65;;
60872;Laerm;46714;50.118;14.462;2022-10-31T11:07:24;74.84;69.80;81.28;;
60872;Laerm;46714;50.118;14.462;2022-10-31T11:09:50;74.66;69.99;81.46;;
60872;Laerm;46714;50.118;14.462;2022-10-31T11:12:30;74.79;69.19;82.34;;
60872;Laerm;46714;50.118;14.462;2022-10-31T11:14:59;77.91;71.01;96.03;;
60872;Laerm;46714;50.118;14.462;2022-10-31T11:17:38;75.46;71.08;86.36;;
60872;Laerm;46714;50.118;14.462;2022-10-31T11:22:41;74.70;69.29;81.31;;
60872;Laerm;46714;50.118;14.462;2022-10-31T11:27:47;75.46;69.28;81.65;;
60872;Laerm;46714;50.118;14.462;2022-10-31T11:30:23;74.41;69.29;79.04;;
60872;Laerm;46714;50.118;14.462;2022-10-31T11:32:50;74.14;70.92;79.56;;
60872;Laerm;46714;50.118;14.462;2022-10-31T11:35:22;74.56;69.06;81.27;;
60872;Laerm;46714;50.118;14.462;2022-10-31T11:37:51;74.33;70.02;79.44;;
60872;Laerm;46714;50.118;14.462;2022-10-31T11:40:21;74.62;71.06;79.34;;
60872;Laerm;46714;50.118;14.462;2022-10-31T11:42:49;74.29;70.62;78.09;;
60872;Laerm;46714;50.118;14.462;2022-10-31T11:45:29;74.88;70.73;80.42;;
60872;Laerm;46714;50.118;14.462;2022-10-31T11:47:56;74.17;70.17;77.42;;
60872;Laerm;46714;50.118;14.462;2022-10-31T11:52:47;74.97;71.24;81.51;;
60872;Laerm;46714;50.118;14.462;2022-10-31T11:55:17;74.82;71.19;81.52;;
60872;Laerm;46714;50.118;14.462;2022-10-31T11:57:48;74.81;69.71;79.06;;
60872;Laerm;46714;50.118;14.462;2022-10-31T12:02:49;74.84;69.69;80.41;;
60872;Laerm;46714;50.118;14.462;2022-10-31T12:05:21;74.98;69.99;82.38;;
60872;Laerm;46714;50.118;14.462;2022-10-31T12:07:48;75.63;69.46;91.57;;
60872;Laerm;46714;50.118;14.462;2022-10-31T12:10:15;75.13;69.79;91.06;;
60872;Laerm;46714;50.118;14.462;2022-10-31T12:34:40;74.58;70.30;79.66;;
60872;Laerm;46714;50.118;14.462;2022-10-31T12:46:00;75.04;67.37;81.33;;
60872;Laerm;46714;50.118;14.462;2022-10-31T12:51:05;74.67;70.36;82.46;;
60872;Laerm;46714;50.118;14.462;2022-10-31T12:53:59;74.88;70.71;80.31;;
60872;Laerm;46714;50.118;14.462;2022-10-31T12:59:28;74.50;68.83;83.78;;
60872;Laerm;46714;50.118;14.462;2022-10-31T13:01:58;75.25;71.66;80.46;;
60872;Laerm;46714;50.118;14.462;2022-10-31T13:04:42;80.02;69.18;100.14;;
60872;Laerm;46714;50.118;14.462;2022-10-31T13:07:17;78.98;68.48;99.51;;
60872;Laerm;46714;50.118;14.462;2022-10-31T13:10:02;74.73;70.04;81.65;;
60872;Laerm;46714;50.118;14.462;2022-10-31T13:12:31;75.15;70.50;88.31;;
60872;Laerm;46714;50.118;14.462;2022-10-31T13:15:02;74.71;70.67;81.27;;
60872;Laerm;46714;50.118;14.462;2022-10-31T13:17:33;74.56;69.52;78.46;;
60872;Laerm;46714;50.118;14.462;2022-10-31T13:20:13;74.44;70.71;81.45;;
60872;Laerm;46714;50.118;14.462;2022-10-31T13:22:42;75.42;70.64;89.33;;
60872;Laerm;46714;50.118;14.462;2022-10-31T13:27:45;74.91;70.94;83.65;;
60872;Laerm;46714;50.118;14.462;2022-10-31T13:30:20;74.61;70.50;80.51;;
60872;Laerm;46714;50.118;14.462;2022-10-31T13:33:13;74.69;70.92;80.85;;
60872;Laerm;46714;50.118;14.462;2022-10-31T13:36:04;77.47;69.58;96.44;;
60872;Laerm;46714;50.118;14.462;2022-10-31T13:38:38;74.36;69.45;79.91;;
60872;Laerm;46714;50.118;14.462;2022-10-31T13:48:58;74.36;69.99;79.94;;
60872;Laerm;46714;50.118;14.462;2022-10-31T13:51:31;74.42;69.01;79.93;;
60872;Laerm;46714;50.118;14.462;2022-10-31T13:54:01;74.76;70.58;81.58;;
60872;Laerm;46714;50.118;14.462;2022-10-31T13:56:33;74.64;69.99;80.00;;
60872;Laerm;46714;50.118;14.462;2022-10-31T13:59:14;79.32;69.78;98.77;;
60872;Laerm;46714;50.118;14.462;2022-10-31T14:04:24;74.15;69.46;79.92;;
60872;Laerm;46714;50.118;14.462;2022-10-31T14:07:09;74.46;70.35;81.91;;
60872;Laerm;46714;50.118;14.462;2022-10-31T14:09:57;74.23;70.71;78.26;;
60872;Laerm;46714;50.118;14.462;2022-10-31T14:15:01;74.70;71.15;81.52;;
60872;Laerm;46714;50.118;14.462;2022-10-31T14:17:40;74.74;71.59;79.09;;
60872;Laerm;46714;50.118;14.462;2022-10-31T14:22:37;74.25;70.31;79.40;;
60872;Laerm;46714;50.118;14.462;2022-10-31T14:25:36;74.49;71.00;81.45;;
60872;Laerm;46714;50.118;14.462;2022-10-31T14:28:30;76.56;70.33;93.22;;
60872;Laerm;46714;50.118;14.462;2022-10-31T14:30:57;74.06;68.88;78.66;;
60872;Laerm;46714;50.118;14.462;2022-10-31T14:33:28;74.06;67.57;88.72;;
60872;Laerm;46714;50.118;14.462;2022-10-31T14:46:53;74.89;70.71;80.56;;
60872;Laerm;46714;50.118;14.462;2022-10-31T14:52:36;73.48;69.05;80.19;;
60872;Laerm;46714;50.118;14.462;2022-10-31T14:55:06;76.22;68.93;94.86;;
60872;Laerm;46714;50.118;14.462;2022-10-31T14:57:34;73.20;68.64;78.56;;
60872;Laerm;46714;50.118;14.462;2022-10-31T15:00:05;75.12;70.36;87.98;;
60872;Laerm;46714;50.118;14.462;2022-10-31T15:02:35;72.90;69.26;79.31;;
60872;Laerm;46714;50.118;14.462;2022-10-31T15:05:11;73.58;68.78;80.71;;
60872;Laerm;46714;50.118;14.462;2022-10-31T15:07:48;72.59;69.27;76.59;;
60872;Laerm;46714;50.118;14.462;2022-10-31T15:10:30;78.64;69.12;102.03;;
60872;Laerm;46714;50.118;14.462;2022-10-31T15:13:15;72.98;68.53;79.31;;
60872;Laerm;46714;50.118;14.462;2022-10-31T15:15:42;73.51;69.24;79.67;;
60872;Laerm;46714;50.118;14.462;2022-10-31T15:18:16;72.29;69.12;76.69;;
60872;Laerm;46714;50.118;14.462;2022-10-31T15:20:44;72.90;69.35;78.97;;
60872;Laerm;46714;50.118;14.462;2022-10-31T15:23:16;72.71;66.91;79.51;;
60872;Laerm;46714;50.118;14.462;2022-10-31T15:25:45;71.25;65.76;75.27;;
60872;Laerm;46714;50.118;14.462;2022-10-31T15:28:19;71.92;68.60;75.93;;
60872;Laerm;46714;50.118;14.462;2022-10-31T15:30:51;71.55;66.98;78.30;;
60872;Laerm;46714;50.118;14.462;2022-10-31T15:33:20;72.64;67.81;84.69;;
60872;Laerm;46714;50.118;14.462;2022-10-31T15:35:55;72.15;67.27;78.52;;
60872;Laerm;46714;50.118;14.462;2022-10-31T15:38:21;72.94;68.82;78.71;;
60872;Laerm;46714;50.118;14.462;2022-10-31T15:41:00;75.08;69.40;84.20;;
60872;Laerm;46714;50.118;14.462;2022-10-31T15:43:31;73.81;68.00;88.53;;
60872;Laerm;46714;50.118;14.462;2022-10-31T15:46:00;71.40;67.58;77.47;;
60872;Laerm;46714;50.118;14.462;2022-10-31T15:48:26;72.79;68.44;77.43;;
60872;Laerm;46714;50.118;14.462;2022-10-31T15:50:55;76.35;67.77;96.42;;
60872;Laerm;46714;50.118;14.462;2022-10-31T15:53:30;80.76;66.93;103.11;;
60872;Laerm;46714;50.118;14.462;2022-10-31T15:56:09;73.64;69.02;78.73;;
60872;Laerm;46714;50.118;14.462;2022-10-31T15:58:43;73.41;69.28;77.50;;
60872;Laerm;46714;50.118;14.462;2022-10-31T16:01:21;72.95;67.45;80.41;;
60872;Laerm;46714;50.118;14.462;2022-10-31T16:06:37;73.31;68.52;80.69;;
60872;Laerm;46714;50.118;14.462;2022-10-31T16:09:03;73.34;69.49;79.13;;
60872;Laerm;46714;50.118;14.462;2022-10-31T16:11:44;73.21;69.36;77.83;;
60872;Laerm;46714;50.118;14.462;2022-10-31T16:14:18;78.31;69.59;95.27;;
60872;Laerm;46714;50.118;14.462;2022-10-31T16:16:49;73.23;68.38;78.01;;
60872;Laerm;46714;50.118;14.462;2022-10-31T16:19:24;72.81;67.44;77.20;;
60872;Laerm;46714;50.118;14.462;2022-10-31T16:21:56;72.04;68.53;78.33;;